createdAt,value
2019-03-24T00:01:41.324Z,9.75
2019-03-24T00:11:43.695Z,9.69
2019-03-24T00:21:49.253Z,9.50
2019-03-24T00:31:53.164Z,9.25
2019-03-24T00:41:58.265Z,9.06
2019-03-24T00:52:02.227Z,9.00
2019-03-24T01:02:06.772Z,8.81
2019-03-24T01:12:11.654Z,8.56
2019-03-24T01:22:15.245Z,8.44
2019-03-24T01:32:19.235Z,8.06
2019-03-24T01:42:23.227Z,7.94
2019-03-24T01:52:28.314Z,7.94
2019-03-24T02:02:32.230Z,7.81
2019-03-24T02:12:37.307Z,7.50
2019-03-24T02:22:42.207Z,7.06
2019-03-24T02:32:46.723Z,7.25
2019-03-24T02:42:51.326Z,7.25
2019-03-24T02:52:55.118Z,6.94
2019-03-24T03:02:59.705Z,6.81
2019-03-24T03:13:04.315Z,6.75
2019-03-24T03:23:08.228Z,6.19
2019-03-24T03:33:13.254Z,6.31
2019-03-24T03:43:17.137Z,6.44
2019-03-24T03:53:21.662Z,6.31
2019-03-24T04:03:25.238Z,5.94
2019-03-24T04:13:29.125Z,5.94
2019-03-24T04:23:33.628Z,5.94
2019-03-24T04:33:37.269Z,5.69
2019-03-24T04:43:41.091Z,5.87
2019-03-24T04:53:46.137Z,5.81
2019-03-24T05:03:50.110Z,5.81
2019-03-24T05:13:54.647Z,5.75
2019-03-24T05:23:58.268Z,5.87
2019-03-24T05:34:02.093Z,6.00
2019-03-24T05:44:07.096Z,6.12
2019-03-24T05:54:11.655Z,6.25
2019-03-24T06:04:16.307Z,6.12
2019-03-24T06:14:20.654Z,6.44
2019-03-24T06:24:24.261Z,6.81
2019-03-24T06:34:28.135Z,6.75
2019-03-24T06:44:33.044Z,6.94
2019-03-24T06:54:37.679Z,6.75
2019-03-24T07:04:42.273Z,7.12
2019-03-24T07:14:47.105Z,7.44
2019-03-24T07:24:51.609Z,7.50
2019-03-24T07:34:55.110Z,7.69
2019-03-24T07:44:59.615Z,8.00
2019-03-24T07:55:05.105Z,8.31
2019-03-24T08:05:09.615Z,8.38
2019-03-24T08:15:14.235Z,8.56
2019-03-24T08:25:19.121Z,9.31
2019-03-24T08:35:24.288Z,9.63
2019-03-24T08:45:28.646Z,9.81
2019-03-24T08:55:32.114Z,9.81
2019-03-24T09:05:36.967Z,10.69
2019-03-24T09:15:43.223Z,11.50
2019-03-24T09:25:47.546Z,11.75
2019-03-24T09:35:51.135Z,12.13
2019-03-24T09:45:56.396Z,12.81
2019-03-24T09:56:00.112Z,11.81
2019-03-24T10:06:05.095Z,12.81
2019-03-24T10:16:09.147Z,13.13
2019-03-24T10:26:14.273Z,12.88
2019-03-24T10:36:18.136Z,13.13
2019-03-24T10:46:23.279Z,13.81
2019-03-24T10:56:28.101Z,13.94
2019-03-24T11:06:32.652Z,14.81
2019-03-24T11:16:37.529Z,14.81
2019-03-24T11:26:41.105Z,15.25
2019-03-24T11:36:46.235Z,15.81
2019-03-24T11:46:51.120Z,15.63
2019-03-24T11:56:56.229Z,17.06
2019-03-24T12:07:01.163Z,16.94
2019-03-24T12:17:05.238Z,17.25
2019-03-24T12:27:09.098Z,18.12
2019-03-24T12:37:14.094Z,19.31
2019-03-24T12:47:19.284Z,19.94
2019-03-24T12:57:23.226Z,21.12
2019-03-24T13:07:28.224Z,21.37
2019-03-24T13:17:32.115Z,26.69
2019-03-24T13:27:36.654Z,24.31
2019-03-24T13:37:41.303Z,25.00
2019-03-24T13:47:45.108Z,25.69
2019-03-24T13:57:50.101Z,25.00
2019-03-24T14:07:54.104Z,24.19
2019-03-24T14:17:59.121Z,23.75
2019-03-24T14:33:59.099Z,24.25
2019-03-24T14:44:04.052Z,23.31
2019-03-24T14:56:42.098Z,23.50
2019-03-24T15:06:47.073Z,22.62
2019-03-24T15:16:51.652Z,22.37
2019-03-24T15:26:55.096Z,20.94
2019-03-24T15:37:00.110Z,19.81
2019-03-24T15:47:06.119Z,18.25
2019-03-24T15:57:10.888Z,17.12
2019-03-24T16:07:15.623Z,16.50
2019-03-24T16:17:20.255Z,15.75
2019-03-24T16:27:24.078Z,15.00
2019-03-24T16:37:28.936Z,14.19
2019-03-24T16:47:34.221Z,13.69
2019-03-24T16:57:39.084Z,13.06
2019-03-24T17:07:43.645Z,12.69
2019-03-24T17:17:48.319Z,12.63
2019-03-24T17:27:52.059Z,12.13
2019-03-24T17:37:56.632Z,11.88
2019-03-24T17:48:01.396Z,11.38
2019-03-24T17:58:05.140Z,11.31
2019-03-24T18:08:10.233Z,10.88
2019-03-24T18:18:15.030Z,11.31
2019-03-24T18:28:20.096Z,11.19
2019-03-24T18:38:24.112Z,11.19
2019-03-24T18:48:28.984Z,11.19
2019-03-24T18:58:34.134Z,11.00
2019-03-24T19:08:39.228Z,11.00
2019-03-24T19:18:43.103Z,10.69
2019-03-24T19:28:47.661Z,10.50
2019-03-24T19:38:53.223Z,10.38
2019-03-24T19:48:57.090Z,10.44
2019-03-24T19:59:01.643Z,10.19
2019-03-24T20:09:08.484Z,9.81
2019-03-24T20:19:12.239Z,10.00
2019-03-24T20:29:16.129Z,9.81
2019-03-24T20:39:21.171Z,9.63
2019-03-24T20:49:25.132Z,9.63
2019-03-24T20:59:30.273Z,9.50
2019-03-24T21:09:34.231Z,9.31
2019-03-24T21:19:39.026Z,9.06
2019-03-24T21:29:43.920Z,9.00
2019-03-24T21:39:48.627Z,8.94
2019-03-24T21:49:52.249Z,8.69
2019-03-24T21:59:56.226Z,8.50
2019-03-24T22:10:01.230Z,8.13
2019-03-24T22:20:06.306Z,8.13
2019-03-24T22:30:11.616Z,8.19
2019-03-24T22:40:15.225Z,8.31
2019-03-24T22:50:19.137Z,8.06
2019-03-24T23:00:24.542Z,8.13
2019-03-24T23:10:30.822Z,7.75
2019-03-24T23:20:36.245Z,7.44
2019-03-24T23:30:40.167Z,7.69
2019-03-24T23:40:44.246Z,7.81
2019-03-24T23:50:48.225Z,7.25
